createdAt,value
2023-06-06T00:00:21.928Z,98545.59
2023-06-06T00:02:50.633Z,98546.19
2023-06-06T00:05:19.166Z,98544.28
2023-06-06T00:07:46.973Z,98537.88
2023-06-06T00:10:16.079Z,98539.84
2023-06-06T00:12:45.725Z,98546.81
2023-06-06T00:15:14.515Z,98550.16
2023-06-06T00:17:46.020Z,98545.47
2023-06-06T00:20:13.833Z,98546.63
2023-06-06T00:22:41.631Z,98546.06
2023-06-06T00:25:10.013Z,98556.00
2023-06-06T00:27:37.772Z,98552.56
2023-06-06T00:30:06.061Z,98552.47
2023-06-06T00:32:32.695Z,98546.84
2023-06-06T00:34:59.280Z,98550.06
2023-06-06T00:37:26.923Z,98544.78
2023-06-06T00:39:53.485Z,98541.94
2023-06-06T00:42:20.056Z,98545.03
2023-06-06T00:44:46.650Z,98546.53
2023-06-06T00:47:13.535Z,98548.00
2023-06-06T00:49:42.276Z,98550.28
2023-06-06T00:52:10.605Z,98554.19
2023-06-06T00:54:37.552Z,98551.00
2023-06-06T00:57:05.893Z,98545.03
2023-06-06T00:59:32.617Z,98549.38
2023-06-06T01:02:00.040Z,98552.59
2023-06-06T01:04:27.694Z,98558.06
2023-06-06T01:06:54.443Z,98551.22
2023-06-06T01:09:21.554Z,98550.63
2023-06-06T01:11:52.542Z,98544.34
2023-06-06T01:14:44.405Z,98551.44
2023-06-06T01:17:13.444Z,98541.16
2023-06-06T01:19:42.464Z,98538.06
2023-06-06T01:22:14.360Z,98536.47
2023-06-06T01:24:45.901Z,98544.34
2023-06-06T01:27:12.524Z,98543.66
2023-06-06T01:29:39.288Z,98539.56
2023-06-06T01:32:09.762Z,98535.66
2023-06-06T01:34:50.389Z,98533.72
2023-06-06T01:37:32.568Z,98533.84
2023-06-06T01:40:04.873Z,98537.00
2023-06-06T01:42:37.458Z,98531.88
2023-06-06T01:45:05.023Z,98534.63
2023-06-06T01:47:32.912Z,98531.53
2023-06-06T01:50:00.102Z,98531.19
2023-06-06T01:52:29.329Z,98536.66
2023-06-06T01:54:56.795Z,98542.06
2023-06-06T01:57:23.527Z,98535.41
2023-06-06T01:59:50.060Z,98537.69
2023-06-06T02:02:18.278Z,98547.06
2023-06-06T02:04:45.300Z,98549.81
2023-06-06T02:07:13.448Z,98546.13
2023-06-06T02:09:40.017Z,98551.34
2023-06-06T02:12:07.076Z,98561.38
2023-06-06T02:14:34.167Z,98556.44
2023-06-06T02:17:01.913Z,98559.41
2023-06-06T02:19:28.729Z,98560.75
2023-06-06T02:21:55.661Z,98556.88
2023-06-06T02:24:22.509Z,98563.06
2023-06-06T02:26:49.190Z,98564.50
2023-06-06T02:29:15.674Z,98566.09
2023-06-06T02:31:42.233Z,98560.50
2023-06-06T02:34:08.736Z,98561.97
2023-06-06T02:36:36.383Z,98565.25
2023-06-06T02:39:03.115Z,98569.69
2023-06-06T02:41:29.656Z,98566.03
2023-06-06T02:43:56.669Z,98572.41
2023-06-06T02:46:25.279Z,98562.75
2023-06-06T02:48:52.147Z,98569.03
2023-06-06T02:51:21.290Z,98556.31
2023-06-06T02:53:48.149Z,98573.09
2023-06-06T02:56:15.546Z,98571.50
2023-06-06T02:58:42.252Z,98574.25
2023-06-06T03:01:11.053Z,98572.16
2023-06-06T03:03:37.830Z,98571.25
2023-06-06T03:06:05.268Z,98573.72
2023-06-06T03:08:31.940Z,98581.44
2023-06-06T03:10:58.535Z,98581.44
2023-06-06T03:13:25.681Z,98588.75
2023-06-06T03:15:52.315Z,98581.53
2023-06-06T03:18:24.713Z,98589.81
2023-06-06T03:20:55.320Z,98578.06
2023-06-06T03:23:23.327Z,98579.03
2023-06-06T03:25:50.510Z,98575.66
2023-06-06T03:28:20.022Z,98590.25
2023-06-06T03:30:47.215Z,98587.53
2023-06-06T03:33:14.556Z,98587.25
2023-06-06T03:35:41.826Z,98592.28
2023-06-06T03:38:08.883Z,98594.00
2023-06-06T03:40:35.620Z,98599.16
2023-06-06T03:43:02.417Z,98598.47
2023-06-06T03:45:30.561Z,98596.88
2023-06-06T03:47:57.636Z,98599.16
2023-06-06T03:50:24.611Z,98601.41
2023-06-06T03:52:51.240Z,98599.16
2023-06-06T03:55:17.912Z,98606.69
2023-06-06T03:57:46.040Z,98607.16
2023-06-06T04:00:14.555Z,98603.50
2023-06-06T04:02:42.369Z,98603.97
2023-06-06T04:05:10.072Z,98611.25
2023-06-06T04:07:37.325Z,98605.28
2023-06-06T04:10:05.869Z,98605.78
2023-06-06T04:12:32.619Z,98610.13
2023-06-06T04:14:59.223Z,98612.84
2023-06-06T04:17:26.659Z,98606.88
2023-06-06T04:19:54.222Z,98614.00
2023-06-06T04:22:24.160Z,98614.63
2023-06-06T04:24:50.690Z,98616.63
2023-06-06T04:27:18.585Z,98626.59
2023-06-06T04:29:45.758Z,98620.66
2023-06-06T04:32:20.091Z,98627.28
2023-06-06T04:34:48.266Z,98620.47
2023-06-06T04:37:18.849Z,98621.94
2023-06-06T04:39:45.837Z,98619.84
2023-06-06T04:42:13.518Z,98626.53
2023-06-06T04:44:42.889Z,98631.06
2023-06-06T04:47:12.361Z,98627.47
2023-06-06T04:49:41.116Z,98626.75
2023-06-06T04:52:10.166Z,98628.97
2023-06-06T04:54:40.988Z,98633.75
2023-06-06T04:57:08.234Z,98632.22
2023-06-06T04:59:34.980Z,98642.31
2023-06-06T05:02:03.478Z,98634.16
2023-06-06T05:04:32.867Z,98630.69
2023-06-06T05:07:00.736Z,98633.34
2023-06-06T05:09:28.037Z,98631.66
2023-06-06T05:11:56.008Z,98641.38
2023-06-06T05:14:26.462Z,98637.88
2023-06-06T05:16:54.578Z,98635.13
2023-06-06T05:19:22.078Z,98644.19
2023-06-06T05:21:49.296Z,98640.38
2023-06-06T05:24:16.543Z,98643.47
2023-06-06T05:26:43.798Z,98650.34
2023-06-06T05:29:10.960Z,98651.16
2023-06-06T05:31:38.496Z,98651.28
2023-06-06T05:34:05.240Z,98642.97
2023-06-06T05:36:32.157Z,98655.00
2023-06-06T05:38:58.992Z,98654.16
2023-06-06T05:41:26.257Z,98652.53
2023-06-06T05:43:53.233Z,98652.56
2023-06-06T05:46:20.321Z,98654.41
2023-06-06T05:48:47.043Z,98654.19
2023-06-06T05:51:13.846Z,98658.88
2023-06-06T05:53:49.425Z,98648.69
2023-06-06T05:56:19.360Z,98650.22
2023-06-06T05:58:51.038Z,98651.69
2023-06-06T06:01:20.225Z,98655.66
2023-06-06T06:03:50.019Z,98652.19
2023-06-06T06:06:19.342Z,98657.94
2023-06-06T06:08:49.967Z,98655.03
2023-06-06T06:11:17.114Z,98657.72
2023-06-06T06:13:44.350Z,98670.63
2023-06-06T06:16:11.071Z,98664.31
2023-06-06T06:18:37.603Z,98665.13
2023-06-06T06:21:04.231Z,98666.22
2023-06-06T06:23:31.004Z,98668.19
2023-06-06T06:25:57.592Z,98668.56
2023-06-06T06:28:26.316Z,98676.31
2023-06-06T06:30:52.909Z,98670.16
2023-06-06T06:33:19.643Z,98669.09
2023-06-06T06:35:46.439Z,98670.94
2023-06-06T06:38:14.481Z,98676.81
2023-06-06T06:40:40.932Z,98674.56
2023-06-06T06:43:07.396Z,98671.06
2023-06-06T06:45:34.261Z,98678.00
2023-06-06T06:48:02.754Z,98677.53
2023-06-06T06:50:29.572Z,98679.25
2023-06-06T06:52:57.616Z,98679.56
2023-06-06T06:55:25.421Z,98670.41
2023-06-06T06:57:54.834Z,98676.72
2023-06-06T07:00:24.598Z,98674.53
2023-06-06T07:02:55.569Z,98680.00
2023-06-06T07:05:23.126Z,98674.09
2023-06-06T07:07:56.082Z,98678.16
2023-06-06T07:10:24.703Z,98677.16
2023-06-06T07:12:53.391Z,98673.75
2023-06-06T07:15:23.805Z,98678.69
2023-06-06T07:17:54.417Z,98675.78
2023-06-06T07:20:23.684Z,98676.50
2023-06-06T07:22:55.140Z,98682.31
2023-06-06T07:25:22.193Z,98688.28
2023-06-06T07:27:49.084Z,98682.03
2023-06-06T07:30:16.518Z,98680.81
2023-06-06T07:32:45.841Z,98680.72
2023-06-06T07:35:14.761Z,98678.69
2023-06-06T07:37:42.111Z,98672.28
2023-06-06T07:40:11.796Z,98672.16
2023-06-06T07:42:40.262Z,98670.19
2023-06-06T07:45:08.177Z,98664.78
2023-06-06T07:47:34.740Z,98672.34
2023-06-06T07:50:03.196Z,98667.50
2023-06-06T07:52:32.031Z,98670.31
2023-06-06T07:55:00.330Z,98667.22
2023-06-06T07:57:28.231Z,98665.16
2023-06-06T07:59:55.553Z,98659.31
2023-06-06T08:02:22.296Z,98662.81
2023-06-06T08:04:49.052Z,98663.78
2023-06-06T08:07:16.671Z,98660.91
2023-06-06T08:09:44.743Z,98665.28
2023-06-06T08:12:12.408Z,98661.47
2023-06-06T08:14:39.893Z,98663.94
2023-06-06T08:17:07.867Z,98667.75
2023-06-06T08:19:36.975Z,98659.41
2023-06-06T08:22:03.871Z,98664.22
2023-06-06T08:24:30.815Z,98658.19
2023-06-06T08:26:58.905Z,98660.75
2023-06-06T08:29:26.474Z,98654.69
2023-06-06T08:31:55.353Z,98656.66
2023-06-06T08:34:26.059Z,98651.31
2023-06-06T08:36:52.643Z,98662.03
2023-06-06T08:39:20.031Z,98657.59
2023-06-06T08:41:51.914Z,98655.84
2023-06-06T08:44:23.654Z,98662.72
2023-06-06T08:46:56.318Z,98653.28
2023-06-06T08:49:23.134Z,98656.69
2023-06-06T08:51:51.630Z,98651.28
2023-06-06T08:54:21.735Z,98660.09
2023-06-06T08:56:49.045Z,98654.84
2023-06-06T08:59:18.153Z,98656.28
2023-06-06T09:01:47.174Z,98648.75
2023-06-06T09:04:16.700Z,98648.75
2023-06-06T09:06:47.472Z,98663.88
2023-06-06T09:09:15.018Z,98652.25
2023-06-06T09:11:41.871Z,98649.56
2023-06-06T09:14:11.658Z,98657.75
2023-06-06T09:16:40.712Z,98661.34
2023-06-06T09:19:09.464Z,98652.72
2023-06-06T09:21:37.652Z,98659.88
2023-06-06T09:24:05.711Z,98651.66
2023-06-06T09:26:35.406Z,98645.78
2023-06-06T09:29:09.020Z,98650.66
2023-06-06T09:31:40.243Z,98642.44
2023-06-06T09:34:09.790Z,98648.69
2023-06-06T09:36:42.157Z,98645.56
2023-06-06T09:39:13.391Z,98642.50
2023-06-06T09:41:50.066Z,98636.53
2023-06-06T09:44:24.841Z,98646.47
2023-06-06T09:46:59.377Z,98635.31
2023-06-06T09:49:26.056Z,98645.78
2023-06-06T09:51:55.666Z,98644.03
2023-06-06T09:54:23.984Z,98640.53
2023-06-06T09:56:51.617Z,98639.44
2023-06-06T09:59:18.558Z,98632.91
2023-06-06T10:01:46.623Z,98636.59
2023-06-06T10:04:14.339Z,98626.69
2023-06-06T10:06:44.701Z,98627.50
2023-06-06T10:09:12.749Z,98623.19
2023-06-06T10:11:40.624Z,98624.03
2023-06-06T10:14:08.136Z,98624.03
2023-06-06T10:16:36.596Z,98620.09
2023-06-06T10:19:04.462Z,98620.91
2023-06-06T10:21:32.322Z,98620.13
2023-06-06T10:23:59.466Z,98615.72
2023-06-06T10:26:34.818Z,98616.53
2023-06-06T10:29:06.944Z,98612.47
2023-06-06T10:32:05.346Z,98612.44
2023-06-06T10:34:41.724Z,98608.44
2023-06-06T10:37:23.680Z,98608.03
2023-06-06T10:40:02.409Z,98605.28
2023-06-06T10:42:45.159Z,98605.16
2023-06-06T10:45:11.778Z,98603.16
2023-06-06T10:47:48.197Z,98608.31
2023-06-06T10:50:16.662Z,98608.38
2023-06-06T10:52:59.736Z,98599.00
2023-06-06T10:55:26.554Z,98598.31
2023-06-06T10:58:05.501Z,98601.50
2023-06-06T11:00:39.263Z,98598.31
2023-06-06T11:03:14.306Z,98589.97
2023-06-06T11:06:01.707Z,98592.69
2023-06-06T11:08:36.462Z,98589.53
2023-06-06T11:11:28.055Z,98574.84
2023-06-06T11:13:59.811Z,98578.41
2023-06-06T11:16:45.544Z,98587.50
2023-06-06T11:19:18.374Z,98570.34
2023-06-06T11:21:47.734Z,98577.91
2023-06-06T11:24:18.615Z,98575.06
2023-06-06T11:26:46.098Z,98577.38
2023-06-06T11:29:13.359Z,98575.91
2023-06-06T11:31:40.894Z,98578.75
2023-06-06T11:34:08.248Z,98572.50
2023-06-06T11:36:36.868Z,98571.69
2023-06-06T11:39:08.853Z,98574.47
2023-06-06T11:41:37.964Z,98580.03
2023-06-06T11:44:04.887Z,98559.78
2023-06-06T11:46:47.224Z,98565.34
2023-06-06T11:49:14.111Z,98566.53
2023-06-06T11:51:41.358Z,98569.69
2023-06-06T11:54:19.133Z,98569.66
2023-06-06T11:56:46.134Z,98562.47
2023-06-06T11:59:15.935Z,98566.94
2023-06-06T12:01:54.817Z,98568.50
2023-06-06T12:04:22.525Z,98570.91
2023-06-06T12:06:51.111Z,98577.63
2023-06-06T12:09:19.541Z,98563.22
2023-06-06T12:11:57.809Z,98560.41
2023-06-06T12:14:28.440Z,98561.38
2023-06-06T12:17:03.172Z,98554.25
2023-06-06T12:19:30.154Z,98549.00
2023-06-06T12:21:57.076Z,98556.03
2023-06-06T12:24:25.912Z,98556.50
2023-06-06T12:27:09.452Z,98555.28
2023-06-06T12:29:37.711Z,98551.25
2023-06-06T12:32:26.660Z,98558.28
2023-06-06T12:35:06.440Z,98560.84
2023-06-06T12:37:36.650Z,98555.34
2023-06-06T12:40:09.876Z,98554.47
2023-06-06T12:42:39.584Z,98555.56
2023-06-06T12:45:08.834Z,98555.06
2023-06-06T12:47:36.370Z,98547.78
2023-06-06T12:50:03.452Z,98538.94
2023-06-06T12:52:30.066Z,98542.81
2023-06-06T12:54:56.527Z,98541.19
2023-06-06T12:57:24.080Z,98543.63
2023-06-06T12:59:50.772Z,98534.44
2023-06-06T13:02:18.339Z,98537.53
2023-06-06T13:04:46.653Z,98535.25
2023-06-06T13:07:14.065Z,98540.78
2023-06-06T13:09:40.831Z,98537.09
2023-06-06T13:12:09.531Z,98536.25
2023-06-06T13:14:40.237Z,98541.50
2023-06-06T13:17:13.220Z,98547.00
2023-06-06T13:19:41.277Z,98541.78
2023-06-06T13:22:08.457Z,98536.78
2023-06-06T13:24:34.997Z,98530.16
2023-06-06T13:27:02.590Z,98532.38
2023-06-06T13:29:29.310Z,98524.31
2023-06-06T13:31:56.304Z,98532.31
2023-06-06T13:34:22.942Z,98525.97
2023-06-06T13:36:49.591Z,98526.59
2023-06-06T13:39:16.396Z,98527.66
2023-06-06T13:41:46.281Z,98528.72
2023-06-06T13:44:20.243Z,98530.16
2023-06-06T13:47:00.404Z,98527.66
2023-06-06T13:49:28.399Z,98531.19
2023-06-06T13:51:55.469Z,98534.03
2023-06-06T13:54:22.770Z,98528.00
2023-06-06T13:56:49.579Z,98529.69
2023-06-06T13:59:17.490Z,98526.56
2023-06-06T14:01:51.350Z,98518.84
2023-06-06T14:04:18.258Z,98519.97
2023-06-06T14:06:46.023Z,98517.75
2023-06-06T14:09:15.791Z,98514.34
2023-06-06T14:11:45.850Z,98519.03
2023-06-06T14:14:12.738Z,98512.91
2023-06-06T14:16:39.307Z,98517.63
2023-06-06T14:19:06.259Z,98511.44
2023-06-06T14:21:38.804Z,98501.25
2023-06-06T14:24:08.945Z,98502.19
2023-06-06T14:26:36.127Z,98500.59
2023-06-06T14:29:02.721Z,98499.81
2023-06-06T14:31:29.554Z,98506.56
2023-06-06T14:33:56.446Z,98503.81
2023-06-06T14:36:24.018Z,98491.78
2023-06-06T14:38:50.797Z,98494.88
2023-06-06T14:41:18.658Z,98487.56
2023-06-06T14:43:45.916Z,98492.56
2023-06-06T14:46:12.877Z,98504.81
2023-06-06T14:48:40.901Z,98497.19
2023-06-06T14:51:07.776Z,98490.03
2023-06-06T14:53:34.606Z,98499.34
2023-06-06T14:56:08.667Z,98490.63
2023-06-06T14:58:36.305Z,98485.16
2023-06-06T15:01:04.148Z,98492.56
2023-06-06T15:03:30.934Z,98484.09
2023-06-06T15:05:57.831Z,98490.69
2023-06-06T15:08:24.669Z,98493.72
2023-06-06T15:10:51.137Z,98487.78
2023-06-06T15:13:17.705Z,98482.97
2023-06-06T15:15:44.631Z,98482.94
2023-06-06T15:18:12.526Z,98492.44
2023-06-06T15:20:39.518Z,98490.25
2023-06-06T15:23:08.261Z,98486.00
2023-06-06T15:25:35.488Z,98490.41
2023-06-06T15:28:02.795Z,98492.16
2023-06-06T15:30:29.523Z,98486.03
2023-06-06T15:32:56.494Z,98491.84
2023-06-06T15:35:23.301Z,98489.34
2023-06-06T15:37:50.077Z,98485.66
2023-06-06T15:40:17.620Z,98484.41
2023-06-06T15:42:44.384Z,98490.94
2023-06-06T15:45:11.600Z,98487.09
2023-06-06T15:47:38.433Z,98485.53
2023-06-06T15:50:05.825Z,98485.50
2023-06-06T15:52:32.320Z,98473.16
2023-06-06T15:54:59.148Z,98476.72
2023-06-06T15:57:26.176Z,98479.13
2023-06-06T15:59:53.017Z,98479.50
2023-06-06T16:02:19.763Z,98478.59
2023-06-06T16:04:46.353Z,98475.81
2023-06-06T16:07:13.977Z,98474.16
2023-06-06T16:09:40.535Z,98472.34
2023-06-06T16:12:08.232Z,98483.25
2023-06-06T16:14:35.372Z,98476.16
2023-06-06T16:17:01.966Z,98474.63
2023-06-06T16:19:31.084Z,98482.53
2023-06-06T16:21:58.065Z,98480.81
2023-06-06T16:24:24.592Z,98485.94
2023-06-06T16:26:51.771Z,98480.28
2023-06-06T16:29:18.362Z,98482.19
2023-06-06T16:31:45.196Z,98486.06
2023-06-06T16:34:12.331Z,98484.41
2023-06-06T16:36:39.900Z,98478.56
2023-06-06T16:39:09.038Z,98469.25
2023-06-06T16:41:37.605Z,98486.09
2023-06-06T16:44:04.266Z,98476.34
2023-06-06T16:46:31.007Z,98483.00
2023-06-06T16:48:57.816Z,98479.03
2023-06-06T16:51:24.574Z,98485.09
2023-06-06T16:53:51.474Z,98486.63
2023-06-06T16:56:18.091Z,98494.31
2023-06-06T16:58:45.098Z,98495.28
2023-06-06T17:01:11.820Z,98501.00
2023-06-06T17:03:38.582Z,98492.72
2023-06-06T17:06:05.487Z,98495.97
2023-06-06T17:08:32.171Z,98491.59
2023-06-06T17:10:58.952Z,98496.94
2023-06-06T17:13:25.475Z,98489.56
2023-06-06T17:15:52.244Z,98498.63
2023-06-06T17:18:20.038Z,98494.22
2023-06-06T17:20:47.084Z,98495.69
2023-06-06T17:23:13.698Z,98490.31
2023-06-06T17:28:09.901Z,98495.19
2023-06-06T17:30:37.852Z,98498.91
2023-06-06T17:33:04.641Z,98500.34
2023-06-06T17:35:34.327Z,98502.19
2023-06-06T17:38:00.932Z,98501.00
2023-06-06T17:40:27.565Z,98495.50
2023-06-06T17:42:54.880Z,98500.28
2023-06-06T17:45:21.899Z,98505.09
2023-06-06T17:47:48.385Z,98503.72
2023-06-06T17:50:15.439Z,98509.19
2023-06-06T17:52:42.722Z,98511.72
2023-06-06T17:55:10.881Z,98513.69
2023-06-06T17:57:37.327Z,98510.47
2023-06-06T18:00:04.665Z,98512.38
2023-06-06T18:02:31.763Z,98516.22
2023-06-06T18:05:00.501Z,98524.06
2023-06-06T18:07:28.998Z,98521.63
2023-06-06T18:09:56.045Z,98515.22
2023-06-06T18:12:23.416Z,98527.00
2023-06-06T18:14:52.435Z,98528.88
2023-06-06T18:17:20.001Z,98531.56
2023-06-06T18:19:48.289Z,98527.56
2023-06-06T18:22:17.080Z,98525.13
2023-06-06T18:24:44.979Z,98527.06
2023-06-06T18:27:12.032Z,98534.50
2023-06-06T18:29:39.800Z,98534.81
2023-06-06T18:32:06.900Z,98528.84
2023-06-06T18:34:34.937Z,98534.31
2023-06-06T18:37:01.696Z,98528.72
2023-06-06T18:39:29.437Z,98530.22
2023-06-06T18:41:56.427Z,98535.28
2023-06-06T18:44:23.056Z,98537.13
2023-06-06T18:46:50.027Z,98537.00
2023-06-06T18:49:17.875Z,98543.66
2023-06-06T18:51:49.118Z,98536.84
2023-06-06T18:54:17.820Z,98538.38
2023-06-06T18:56:44.725Z,98538.72
2023-06-06T18:59:11.531Z,98539.84
2023-06-06T19:01:39.228Z,98549.28
2023-06-06T19:04:06.550Z,98553.13
2023-06-06T19:06:35.042Z,98553.03
2023-06-06T19:09:01.611Z,98550.44
2023-06-06T19:11:29.425Z,98561.00
2023-06-06T19:13:56.013Z,98552.50
2023-06-06T19:16:22.913Z,98558.84
2023-06-06T19:18:50.369Z,98565.13
2023-06-06T19:21:23.163Z,98570.66
2023-06-06T19:23:50.000Z,98567.81
2023-06-06T19:26:18.922Z,98566.25
2023-06-06T19:28:45.818Z,98581.53
2023-06-06T19:31:13.838Z,98582.97
2023-06-06T19:33:43.975Z,98578.50
2023-06-06T19:36:10.760Z,98586.22
2023-06-06T19:38:39.320Z,98592.75
2023-06-06T19:41:05.932Z,98590.28
2023-06-06T19:43:32.521Z,98596.81
2023-06-06T19:45:59.420Z,98594.72
2023-06-06T19:48:26.468Z,98595.00
2023-06-06T19:50:53.717Z,98604.47
2023-06-06T19:53:20.292Z,98603.16
2023-06-06T19:55:47.976Z,98612.53
2023-06-06T19:58:19.989Z,98610.13
2023-06-06T20:00:50.440Z,98606.94
2023-06-06T20:03:17.138Z,98604.63
2023-06-06T20:05:43.769Z,98608.53
2023-06-06T20:08:10.450Z,98610.41
2023-06-06T20:10:37.472Z,98609.94
2023-06-06T20:13:06.537Z,98610.28
2023-06-06T20:15:33.310Z,98617.72
2023-06-06T20:17:59.991Z,98617.56
2023-06-06T20:20:27.190Z,98624.53
2023-06-06T20:22:56.342Z,98615.31
2023-06-06T20:25:23.963Z,98623.03
2023-06-06T20:27:55.363Z,98620.13
2023-06-06T20:30:23.120Z,98616.75
2023-06-06T20:32:49.741Z,98616.25
2023-06-06T20:35:16.688Z,98614.16
2023-06-06T20:37:43.478Z,98614.84
2023-06-06T20:40:24.600Z,98622.69
2023-06-06T20:42:54.932Z,98622.53
2023-06-06T20:45:23.878Z,98618.00
2023-06-06T20:47:52.068Z,98617.56
2023-06-06T20:50:19.882Z,98622.38
2023-06-06T20:52:47.216Z,98631.50
2023-06-06T20:55:13.968Z,98631.06
2023-06-06T20:57:41.060Z,98630.63
2023-06-06T21:00:08.447Z,98635.72
2023-06-06T21:02:37.295Z,98644.13
2023-06-06T21:05:04.449Z,98631.72
2023-06-06T21:07:31.106Z,98639.63
2023-06-06T21:09:57.637Z,98634.31
2023-06-06T21:12:24.634Z,98636.63
2023-06-06T21:14:51.430Z,98633.31
2023-06-06T21:17:18.441Z,98620.59
2023-06-06T21:19:45.232Z,98628.41
2023-06-06T21:22:12.928Z,98621.31
2023-06-06T21:24:41.843Z,98625.56
2023-06-06T21:27:10.133Z,98624.75
2023-06-06T21:29:37.163Z,98630.97
2023-06-06T21:32:04.184Z,98635.84
2023-06-06T21:34:31.163Z,98624.75
2023-06-06T21:37:01.011Z,98638.78
2023-06-06T21:39:29.653Z,98633.63
2023-06-06T21:41:56.225Z,98634.78
2023-06-06T21:44:22.704Z,98631.13
2023-06-06T21:46:49.405Z,98629.91
2023-06-06T21:49:20.774Z,98631.38
2023-06-06T21:51:47.621Z,98632.47
2023-06-06T21:54:14.304Z,98633.94
2023-06-06T21:56:40.971Z,98633.88
2023-06-06T21:59:07.552Z,98632.50
2023-06-06T22:01:34.441Z,98632.41
2023-06-06T22:04:01.302Z,98629.22
2023-06-06T22:06:29.655Z,98639.06
2023-06-06T22:08:56.327Z,98634.97
2023-06-06T22:11:22.940Z,98646.31
2023-06-06T22:13:49.643Z,98639.13
2023-06-06T22:16:16.251Z,98644.53
2023-06-06T22:18:42.890Z,98641.66
2023-06-06T22:21:09.444Z,98642.34
2023-06-06T22:23:36.045Z,98644.28
2023-06-06T22:28:36.781Z,98647.63
2023-06-06T22:31:03.402Z,98650.75
2023-06-06T22:33:30.229Z,98652.22
2023-06-06T22:35:56.834Z,98654.44
2023-06-06T22:38:23.867Z,98649.97
2023-06-06T22:40:50.686Z,98644.28
2023-06-06T22:43:17.488Z,98638.56
2023-06-06T22:45:44.295Z,98647.03
2023-06-06T22:48:11.725Z,98646.03
2023-06-06T22:50:38.456Z,98648.66
2023-06-06T22:53:08.436Z,98643.88
2023-06-06T22:55:35.301Z,98638.72
2023-06-06T22:58:02.180Z,98639.50
2023-06-06T23:00:28.722Z,98633.81
2023-06-06T23:02:55.441Z,98635.97
2023-06-06T23:05:23.865Z,98638.72
2023-06-06T23:07:50.676Z,98638.16
2023-06-06T23:10:18.007Z,98643.66
2023-06-06T23:12:44.652Z,98638.28
2023-06-06T23:15:13.052Z,98642.03
2023-06-06T23:17:40.122Z,98631.28
2023-06-06T23:20:09.773Z,98645.59
2023-06-06T23:22:43.442Z,98635.28
2023-06-06T23:25:11.580Z,98636.41
2023-06-06T23:27:38.887Z,98637.91
2023-06-06T23:30:07.056Z,98636.78
2023-06-06T23:32:35.259Z,98623.63
2023-06-06T23:35:02.116Z,98627.13
2023-06-06T23:37:28.772Z,98627.84
2023-06-06T23:39:55.392Z,98620.50
2023-06-06T23:42:23.308Z,98617.09
2023-06-06T23:44:49.839Z,98616.59
2023-06-06T23:47:16.697Z,98623.25
2023-06-06T23:49:43.497Z,98622.22
2023-06-06T23:52:10.073Z,98629.19
2023-06-06T23:54:36.928Z,98634.00
2023-06-06T23:57:05.033Z,98626.09
2023-06-06T23:59:32.087Z,98630.78
